createdAt,value
2022-07-25T00:02:24.681Z,100.15
2022-07-25T00:05:00.630Z,84.90
2022-07-25T00:07:35.065Z,91.78
2022-07-25T00:10:12.938Z,84.70
2022-07-25T00:12:47.020Z,84.28
2022-07-25T00:15:20.820Z,78.82
2022-07-25T00:17:54.660Z,81.82
2022-07-25T00:20:31.150Z,84.32
2022-07-25T00:23:05.138Z,87.50
2022-07-25T00:25:39.005Z,81.35
2022-07-25T00:28:25.355Z,89.70
2022-07-25T00:30:59.631Z,88.93
2022-07-25T00:33:37.242Z,91.78
2022-07-25T00:36:16.237Z,84.40
2022-07-25T00:38:49.467Z,81.28
2022-07-25T00:41:23.432Z,84.75
2022-07-25T00:44:00.040Z,80.53
2022-07-25T00:46:33.945Z,86.60
2022-07-25T00:49:07.366Z,85.20
2022-07-25T00:51:42.751Z,80.55
2022-07-25T00:54:16.904Z,80.47
2022-07-25T00:56:50.492Z,82.72
2022-07-25T00:59:24.192Z,82.95
2022-07-25T01:01:58.501Z,79.50
2022-07-25T01:04:36.700Z,77.97
2022-07-25T01:07:12.424Z,79.57
2022-07-25T01:09:46.324Z,77.38
2022-07-25T01:12:20.238Z,78.38
2022-07-25T01:14:54.178Z,80.43
2022-07-25T01:17:27.854Z,83.50
2022-07-25T01:20:01.842Z,76.35
2022-07-25T01:22:37.852Z,75.72
2022-07-25T01:25:12.469Z,75.97
2022-07-25T01:27:51.261Z,78.05
2022-07-25T01:30:30.020Z,68.53
2022-07-25T01:33:06.880Z,70.43
2022-07-25T01:35:43.545Z,69.50
2022-07-25T01:38:19.613Z,65.80
2022-07-25T01:40:54.704Z,67.50
2022-07-25T01:43:27.936Z,63.90
2022-07-25T01:46:02.606Z,65.10
2022-07-25T01:48:36.603Z,70.05
2022-07-25T01:51:11.633Z,65.63
2022-07-25T01:53:47.273Z,62.92
2022-07-25T01:56:21.906Z,61.78
2022-07-25T01:58:55.777Z,61.05
2022-07-25T02:01:29.872Z,57.55
2022-07-25T02:04:03.956Z,61.25
2022-07-25T02:06:42.740Z,49.22
2022-07-25T02:09:17.954Z,63.22
2022-07-25T02:11:51.802Z,59.03
2022-07-25T02:14:27.098Z,52.90
2022-07-25T02:17:01.077Z,53.10
2022-07-25T02:19:35.331Z,56.90
2022-07-25T02:22:08.750Z,50.85
2022-07-25T02:24:45.266Z,60.13
2022-07-25T02:27:19.085Z,47.47
2022-07-25T02:29:52.731Z,47.83
2022-07-25T02:32:26.581Z,45.30
2022-07-25T02:35:00.533Z,46.45
2022-07-25T02:37:34.148Z,48.13
2022-07-25T02:40:09.554Z,42.38
2022-07-25T02:42:43.110Z,46.53
2022-07-25T02:45:16.639Z,41.75
2022-07-25T02:47:50.128Z,50.10
2022-07-25T02:50:23.526Z,44.50
2022-07-25T02:52:57.674Z,34.53
2022-07-25T02:55:33.590Z,38.38
2022-07-25T02:58:07.196Z,32.78
2022-07-25T03:00:41.779Z,32.95
2022-07-25T03:03:18.116Z,33.63
2022-07-25T03:05:52.808Z,34.50
2022-07-25T03:08:26.900Z,34.05
2022-07-25T03:11:02.295Z,27.45
2022-07-25T03:13:36.906Z,36.00
2022-07-25T03:16:11.486Z,41.20
2022-07-25T03:18:47.708Z,29.15
2022-07-25T03:21:21.883Z,31.00
2022-07-25T03:23:54.796Z,29.85
2022-07-25T03:26:30.621Z,29.73
2022-07-25T03:29:04.525Z,31.15
2022-07-25T03:31:38.609Z,31.88
2022-07-25T03:34:12.727Z,29.95
2022-07-25T03:36:47.720Z,27.10
2022-07-25T03:39:21.898Z,29.55
2022-07-25T03:41:57.448Z,29.92
2022-07-25T03:44:46.845Z,31.52
2022-07-25T03:47:21.094Z,25.63
2022-07-25T03:49:54.571Z,32.47
2022-07-25T03:52:28.137Z,35.50
2022-07-25T03:55:01.979Z,35.28
2022-07-25T03:57:38.131Z,36.97
2022-07-25T04:00:14.028Z,28.80
2022-07-25T04:02:47.647Z,30.48
2022-07-25T04:05:24.710Z,32.00
2022-07-25T04:07:58.208Z,29.38
2022-07-25T04:10:32.642Z,27.13
2022-07-25T04:13:08.419Z,30.63
2022-07-25T04:15:42.124Z,29.63
2022-07-25T04:18:20.877Z,25.83
2022-07-25T04:20:58.936Z,31.52
2022-07-25T04:23:33.106Z,35.03
2022-07-25T04:26:06.995Z,35.30
2022-07-25T04:28:42.691Z,36.00
2022-07-25T04:31:17.064Z,36.20
2022-07-25T04:33:50.914Z,36.47
2022-07-25T04:36:24.512Z,33.00
2022-07-25T04:38:58.354Z,36.08
2022-07-25T04:41:34.169Z,33.33
2022-07-25T04:44:10.241Z,37.70
2022-07-25T04:46:44.856Z,35.25
2022-07-25T04:49:23.874Z,32.35
2022-07-25T04:51:58.704Z,32.72
2022-07-25T04:54:32.783Z,30.08
2022-07-25T04:57:07.342Z,35.08
2022-07-25T04:59:43.393Z,38.92
2022-07-25T05:02:17.274Z,32.35
2022-07-25T05:04:51.947Z,35.22
2022-07-25T05:07:27.613Z,37.45
2022-07-25T05:10:01.552Z,40.70
2022-07-25T05:12:35.535Z,39.42
2022-07-25T05:15:12.561Z,40.63
2022-07-25T05:17:47.203Z,36.95
2022-07-25T05:20:23.366Z,38.00
2022-07-25T05:22:58.117Z,42.25
2022-07-25T05:25:32.922Z,41.45
2022-07-25T05:28:06.951Z,37.25
2022-07-25T05:30:42.559Z,41.22
2022-07-25T05:33:20.890Z,38.92
2022-07-25T05:35:56.386Z,40.78
2022-07-25T05:38:30.157Z,44.92
2022-07-25T05:41:03.873Z,38.33
2022-07-25T05:43:37.857Z,37.33
2022-07-25T05:46:15.400Z,38.17
2022-07-25T05:48:49.578Z,33.78
2022-07-25T05:51:27.500Z,38.33
2022-07-25T05:54:05.808Z,39.90
2022-07-25T05:56:39.683Z,34.40
2022-07-25T05:59:13.929Z,33.25
2022-07-25T06:01:50.331Z,36.17
2022-07-25T06:04:27.290Z,37.00
2022-07-25T06:07:03.603Z,37.90
2022-07-25T06:09:39.160Z,37.03
2022-07-25T06:12:13.277Z,44.15
2022-07-25T06:14:48.164Z,42.08
2022-07-25T06:17:25.979Z,36.55
2022-07-25T06:20:03.150Z,37.63
2022-07-25T06:22:37.435Z,43.35
2022-07-25T06:25:14.464Z,43.80
2022-07-25T06:27:49.306Z,41.97
2022-07-25T06:30:23.437Z,34.75
2022-07-25T06:33:00.240Z,39.97
2022-07-25T06:35:34.574Z,35.58
2022-07-25T06:38:09.135Z,34.90
2022-07-25T06:40:43.750Z,35.03
2022-07-25T06:43:18.482Z,38.75
2022-07-25T06:45:53.522Z,35.88
2022-07-25T06:48:38.598Z,32.80
2022-07-25T06:51:12.987Z,33.20
2022-07-25T06:53:48.354Z,34.90
2022-07-25T06:56:22.731Z,29.05
2022-07-25T06:59:06.449Z,36.55
2022-07-25T07:01:45.061Z,33.30
2022-07-25T07:04:28.766Z,37.90
2022-07-25T07:07:04.180Z,32.28
2022-07-25T07:09:38.136Z,40.15
2022-07-25T07:12:12.949Z,32.92
2022-07-25T07:14:56.508Z,34.58
2022-07-25T07:17:30.748Z,33.47
2022-07-25T07:20:07.903Z,32.95
2022-07-25T07:22:53.388Z,30.95
2022-07-25T07:25:28.383Z,31.25
2022-07-25T07:28:03.326Z,30.77
2022-07-25T07:31:13.367Z,32.88
2022-07-25T07:33:34.157Z,32.40
2022-07-25T07:36:11.279Z,34.30
2022-07-25T07:38:46.558Z,33.72
2022-07-25T07:41:28.096Z,31.85
2022-07-25T07:44:02.647Z,30.48
2022-07-25T07:46:46.708Z,27.58
2022-07-25T07:49:49.774Z,29.15
2022-07-25T07:52:38.504Z,29.13
2022-07-25T07:55:25.802Z,31.67
2022-07-25T07:58:00.828Z,27.08
2022-07-25T08:00:40.908Z,25.85
2022-07-25T08:03:14.911Z,27.33
2022-07-25T08:05:50.565Z,29.35
2022-07-25T08:08:31.537Z,29.70
2022-07-25T08:11:06.842Z,29.73
2022-07-25T08:13:41.528Z,23.98
2022-07-25T08:16:16.852Z,26.80
2022-07-25T08:19:03.349Z,32.25
2022-07-25T08:21:38.105Z,28.30
2022-07-25T08:24:21.419Z,26.88
2022-07-25T08:26:56.835Z,25.90
2022-07-25T08:29:31.838Z,26.58
2022-07-25T08:32:06.730Z,27.23
2022-07-25T08:34:44.005Z,26.80
2022-07-25T08:37:42.228Z,24.83
2022-07-25T08:40:19.672Z,26.30
2022-07-25T08:42:56.650Z,22.02
2022-07-25T08:45:39.691Z,22.63
2022-07-25T08:48:14.541Z,20.52
2022-07-25T08:50:49.756Z,27.60
2022-07-25T08:53:33.646Z,29.20
2022-07-25T08:56:20.910Z,23.77
2022-07-25T08:58:55.486Z,22.92
2022-07-25T09:01:32.979Z,22.02
2022-07-25T09:04:11.705Z,18.90
2022-07-25T09:06:55.985Z,24.45
2022-07-25T09:09:37.268Z,20.23
2022-07-25T09:12:13.839Z,24.92
2022-07-25T09:14:50.435Z,20.92
2022-07-25T09:17:25.365Z,24.73
2022-07-25T09:20:02.083Z,24.25
2022-07-25T09:22:37.734Z,20.52
2022-07-25T09:25:23.847Z,23.48
2022-07-25T09:28:00.098Z,21.58
2022-07-25T09:30:33.851Z,21.58
2022-07-25T09:33:07.999Z,21.48
2022-07-25T09:35:43.009Z,22.80
2022-07-25T09:38:19.117Z,20.52
2022-07-25T09:41:04.870Z,19.88
2022-07-25T09:43:45.053Z,21.85
2022-07-25T09:46:18.835Z,21.90
2022-07-25T09:49:02.383Z,20.80
2022-07-25T09:51:37.159Z,21.10
2022-07-25T09:54:14.847Z,21.80
2022-07-25T09:56:48.737Z,20.35
2022-07-25T09:59:30.622Z,21.10
2022-07-25T10:02:12.069Z,22.08
2022-07-25T10:05:00.781Z,27.15
2022-07-25T10:07:35.407Z,27.33
2022-07-25T10:10:33.903Z,22.45
2022-07-25T10:13:13.286Z,23.15
2022-07-25T10:15:53.527Z,22.38
2022-07-25T10:18:29.246Z,21.05
2022-07-25T10:21:28.687Z,24.90
2022-07-25T10:24:07.759Z,24.23
2022-07-25T10:26:42.806Z,29.63
2022-07-25T10:29:17.226Z,22.02
2022-07-25T10:31:54.411Z,25.13
2022-07-25T10:34:34.618Z,22.70
2022-07-25T10:37:20.852Z,25.65
2022-07-25T10:39:54.673Z,26.25
2022-07-25T10:42:29.362Z,28.52
2022-07-25T10:45:10.787Z,29.65
2022-07-25T10:48:04.623Z,25.33
2022-07-25T10:50:54.876Z,30.40
2022-07-25T10:53:53.197Z,27.30
2022-07-25T11:17:27.711Z,24.83
2022-07-25T11:20:20.746Z,28.42
2022-07-25T11:23:06.407Z,26.50
2022-07-25T11:26:00.839Z,19.50
2022-07-25T11:29:05.295Z,26.27
2022-07-25T11:31:43.256Z,22.02
2022-07-25T11:34:57.675Z,22.20
2022-07-25T11:37:37.650Z,22.20
2022-07-25T11:40:13.924Z,22.30
2022-07-25T11:42:50.103Z,26.48
2022-07-25T11:45:25.379Z,22.42
2022-07-25T11:48:09.273Z,21.42
2022-07-25T11:50:47.065Z,19.48
2022-07-25T11:53:22.741Z,20.58
2022-07-25T11:55:56.933Z,22.00
2022-07-25T11:58:30.977Z,20.45
2022-07-25T12:01:04.592Z,21.48
2022-07-25T12:03:43.605Z,24.38
2022-07-25T12:06:19.018Z,20.85
2022-07-25T12:08:53.945Z,24.00
2022-07-25T12:11:28.732Z,20.50
2022-07-25T12:14:09.346Z,23.45
2022-07-25T12:16:43.495Z,25.08
2022-07-25T12:19:25.486Z,21.13
2022-07-25T12:22:02.332Z,27.27
2022-07-25T12:24:38.079Z,23.40
2022-07-25T12:27:12.795Z,25.73
2022-07-25T12:29:46.424Z,26.42
2022-07-25T12:32:20.235Z,29.00
2022-07-25T12:34:54.774Z,28.67
2022-07-25T12:37:33.334Z,30.35
2022-07-25T12:40:08.023Z,30.98
2022-07-25T12:42:42.062Z,37.03
2022-07-25T12:45:17.243Z,26.52
2022-07-25T12:47:52.776Z,27.20
2022-07-25T12:50:29.315Z,27.20
2022-07-25T12:53:06.174Z,36.08
2022-07-25T12:55:40.672Z,28.25
2022-07-25T12:58:17.018Z,30.13
2022-07-25T13:00:50.860Z,35.20
2022-07-25T13:03:25.377Z,31.00
2022-07-25T13:06:00.068Z,38.20
2022-07-25T13:08:39.040Z,29.98
2022-07-25T13:11:14.234Z,33.13
2022-07-25T13:13:48.628Z,32.20
2022-07-25T13:16:23.167Z,30.95
2022-07-25T13:19:01.193Z,33.17
2022-07-25T13:21:35.518Z,33.95
2022-07-25T13:24:12.675Z,31.10
2022-07-25T13:26:47.368Z,32.95
2022-07-25T13:29:22.379Z,32.85
2022-07-25T13:31:59.168Z,34.30
2022-07-25T13:34:34.775Z,36.58
2022-07-25T13:37:08.458Z,35.63
2022-07-25T13:39:44.487Z,45.97
2022-07-25T13:42:19.786Z,49.05
2022-07-25T13:44:55.896Z,44.47
2022-07-25T13:47:30.646Z,49.22
2022-07-25T13:50:05.000Z,43.28
2022-07-25T13:52:39.077Z,55.88
2022-07-25T13:55:15.788Z,47.55
2022-07-25T13:57:52.923Z,43.60
2022-07-25T14:00:26.598Z,48.65
2022-07-25T14:03:01.356Z,48.50
2022-07-25T14:05:35.336Z,44.97
2022-07-25T14:08:10.436Z,43.55
2022-07-25T14:10:49.782Z,48.25
2022-07-25T14:13:24.580Z,46.05
2022-07-25T14:15:59.436Z,45.83
2022-07-25T14:18:34.044Z,42.58
2022-07-25T14:21:10.838Z,50.92
2022-07-25T14:23:46.838Z,51.67
2022-07-25T14:26:23.922Z,49.13
2022-07-25T14:28:59.007Z,50.30
2022-07-25T14:34:24.276Z,47.55
2022-07-25T14:37:00.542Z,52.80
2022-07-25T14:39:35.193Z,53.47
2022-07-25T14:42:12.937Z,53.75
2022-07-25T14:44:47.737Z,57.33
2022-07-25T14:47:21.830Z,55.28
2022-07-25T14:49:58.584Z,50.63
2022-07-25T14:52:32.933Z,51.17
2022-07-25T14:55:14.278Z,51.97
2022-07-25T14:57:53.199Z,47.88
2022-07-25T15:00:29.577Z,51.65
2022-07-25T15:03:04.332Z,52.25
2022-07-25T15:05:39.855Z,54.60
2022-07-25T15:08:15.977Z,45.50
2022-07-25T15:10:54.551Z,50.45
2022-07-25T15:13:32.358Z,53.55
2022-07-25T15:16:09.129Z,52.83
2022-07-25T15:19:13.275Z,49.63
2022-07-25T15:21:41.252Z,47.83
2022-07-25T15:24:17.813Z,46.88
2022-07-25T15:26:53.174Z,46.75
2022-07-25T15:29:30.479Z,49.25
2022-07-25T15:32:10.691Z,48.13
2022-07-25T15:34:46.479Z,47.60
2022-07-25T15:37:20.659Z,49.50
2022-07-25T15:39:56.393Z,56.95
2022-07-25T15:42:32.145Z,54.80
2022-07-25T15:45:32.038Z,55.75
2022-07-25T15:48:05.703Z,64.07
2022-07-25T15:50:48.887Z,62.08
2022-07-25T15:53:23.963Z,66.97
2022-07-25T15:55:58.855Z,65.32
2022-07-25T15:58:33.902Z,73.05
2022-07-25T16:01:11.682Z,78.10
2022-07-25T16:03:45.932Z,76.05
2022-07-25T16:06:22.149Z,76.55
2022-07-25T16:08:58.610Z,86.03
2022-07-25T16:11:33.703Z,78.38
2022-07-25T16:14:08.471Z,81.60
2022-07-25T16:16:45.882Z,78.93
2022-07-25T16:19:20.421Z,85.15
2022-07-25T16:21:55.341Z,78.10
2022-07-25T16:24:31.069Z,76.53
2022-07-25T16:27:06.921Z,69.20
2022-07-25T16:29:41.974Z,68.80
2022-07-25T16:32:18.727Z,67.15
2022-07-25T16:34:53.911Z,69.68
2022-07-25T16:37:28.061Z,71.30
2022-07-25T16:40:06.527Z,68.75
2022-07-25T16:42:41.751Z,66.72
2022-07-25T16:45:17.272Z,72.13
2022-07-25T16:47:54.202Z,60.65
2022-07-25T16:50:29.074Z,72.78
2022-07-25T16:53:03.257Z,76.35
2022-07-25T16:55:38.514Z,77.10
2022-07-25T16:58:12.758Z,80.97
2022-07-25T17:00:48.700Z,73.57
2022-07-25T17:03:25.538Z,75.75
2022-07-25T17:05:59.204Z,77.88
2022-07-25T17:08:34.537Z,76.00
2022-07-25T17:11:09.080Z,75.93
2022-07-25T17:13:43.557Z,74.90
2022-07-25T17:16:17.747Z,74.68
2022-07-25T17:18:55.375Z,68.55
2022-07-25T17:21:30.137Z,68.53
2022-07-25T17:24:04.438Z,70.72
2022-07-25T17:26:39.536Z,78.30
2022-07-25T17:29:14.035Z,77.65
2022-07-25T17:31:49.063Z,70.93
2022-07-25T17:37:14.419Z,75.05
2022-07-25T17:39:48.442Z,71.32
2022-07-25T17:42:23.931Z,73.05
2022-07-25T17:44:58.697Z,71.78
2022-07-25T17:47:33.831Z,73.43
2022-07-25T17:50:10.428Z,78.85
2022-07-25T17:52:43.926Z,81.82
2022-07-25T17:55:17.905Z,67.68
2022-07-25T17:57:55.932Z,68.13
2022-07-25T18:00:30.768Z,74.45
2022-07-25T18:03:04.977Z,72.28
2022-07-25T18:05:41.098Z,68.22
2022-07-25T18:08:15.605Z,67.47
2022-07-25T18:10:50.758Z,74.10
2022-07-25T18:13:26.200Z,74.57
2022-07-25T18:16:01.498Z,78.45
2022-07-25T18:18:35.440Z,76.10
2022-07-25T18:21:11.437Z,77.57
2022-07-25T18:23:45.778Z,71.15
2022-07-25T18:26:19.456Z,72.35
2022-07-25T18:28:52.588Z,75.22
2022-07-25T18:31:25.771Z,86.47
2022-07-25T18:33:59.625Z,85.28
2022-07-25T18:36:35.489Z,78.35
2022-07-25T18:39:10.024Z,77.25
2022-07-25T18:41:43.848Z,77.97
2022-07-25T18:44:17.108Z,87.72
2022-07-25T18:46:51.117Z,89.88
2022-07-25T18:49:24.932Z,98.13
2022-07-25T18:52:00.282Z,84.78
2022-07-25T18:54:34.073Z,93.55
2022-07-25T18:57:08.295Z,83.47
2022-07-25T18:59:42.991Z,82.63
2022-07-25T19:02:17.094Z,83.30
2022-07-25T19:04:51.922Z,85.20
2022-07-25T19:07:28.465Z,85.75
2022-07-25T19:10:02.170Z,90.93
2022-07-25T19:12:35.542Z,89.15
2022-07-25T19:15:09.477Z,97.95
2022-07-25T19:17:43.345Z,92.68
2022-07-25T19:20:22.922Z,88.00
2022-07-25T19:22:58.991Z,85.40
2022-07-25T19:25:33.046Z,91.13
2022-07-25T19:28:08.099Z,82.70
2022-07-25T19:33:34.686Z,81.70
2022-07-25T19:36:10.566Z,88.55
2022-07-25T19:38:46.282Z,75.80
2022-07-25T19:41:20.456Z,82.45
2022-07-25T19:43:55.190Z,76.35
2022-07-25T19:46:32.256Z,80.93
2022-07-25T19:49:07.135Z,83.05
2022-07-25T19:51:43.925Z,93.68
2022-07-25T19:54:27.335Z,79.53
2022-07-25T19:57:01.308Z,77.47
2022-07-25T19:59:35.429Z,72.93
2022-07-25T20:02:09.013Z,73.50
2022-07-25T20:04:48.410Z,78.30
2022-07-25T20:07:27.719Z,76.13
2022-07-25T20:10:03.456Z,67.30
2022-07-25T20:12:38.830Z,72.03
2022-07-25T20:15:13.235Z,71.32
2022-07-25T20:17:46.994Z,79.63
2022-07-25T20:20:21.124Z,76.40
2022-07-25T20:23:00.862Z,77.07
2022-07-25T20:25:37.080Z,77.15
2022-07-25T20:28:10.911Z,76.50
2022-07-25T20:30:47.634Z,79.27
2022-07-25T20:33:25.043Z,75.10
2022-07-25T20:35:58.841Z,74.95
2022-07-25T20:38:33.582Z,79.35
2022-07-25T20:41:09.197Z,75.43
2022-07-25T20:43:44.467Z,76.65
2022-07-25T20:46:18.280Z,79.45
2022-07-25T20:48:52.259Z,79.57
2022-07-25T20:51:25.935Z,78.20
2022-07-25T20:53:59.476Z,71.28
2022-07-25T20:56:34.510Z,71.53
2022-07-25T20:59:08.825Z,82.70
2022-07-25T21:01:44.050Z,73.57
2022-07-25T21:04:18.161Z,83.73
2022-07-25T21:06:51.885Z,76.35
2022-07-25T21:09:32.582Z,84.60
2022-07-25T21:12:08.777Z,81.80
2022-07-25T21:14:42.847Z,76.67
2022-07-25T21:17:16.822Z,87.13
2022-07-25T21:19:50.587Z,73.43
2022-07-25T21:22:24.137Z,67.43
2022-07-25T21:24:57.473Z,77.37
2022-07-25T21:27:32.275Z,72.03
2022-07-25T21:30:06.442Z,82.63
2022-07-25T21:32:40.462Z,86.85
2022-07-25T21:35:14.453Z,80.50
2022-07-25T21:37:51.470Z,76.83
2022-07-25T21:40:27.927Z,72.50
2022-07-25T21:43:03.779Z,76.03
2022-07-25T21:45:36.959Z,74.27
2022-07-25T21:48:11.163Z,78.10
2022-07-25T21:50:58.570Z,68.30
2022-07-25T21:53:34.161Z,100.80
2022-07-25T21:56:08.519Z,85.07
2022-07-25T21:58:44.645Z,76.90
2022-07-25T22:01:18.227Z,74.10
2022-07-25T22:03:52.315Z,72.80
2022-07-25T22:06:26.666Z,76.00
2022-07-25T22:11:50.252Z,64.90
2022-07-25T22:14:26.661Z,70.97
2022-07-25T22:17:00.343Z,69.43
2022-07-25T22:19:34.563Z,69.27
2022-07-25T22:22:09.412Z,64.20
2022-07-25T22:24:46.628Z,68.27
2022-07-25T22:27:21.163Z,65.70
2022-07-25T22:29:57.168Z,63.57
2022-07-25T22:32:30.805Z,69.50
2022-07-25T22:35:04.985Z,72.45
2022-07-25T22:37:40.703Z,67.53
2022-07-25T22:40:16.119Z,74.32
2022-07-25T22:42:52.533Z,69.05
2022-07-25T22:45:27.445Z,64.45
2022-07-25T22:48:01.326Z,66.80
2022-07-25T22:50:34.722Z,70.85
2022-07-25T22:53:08.219Z,77.95
2022-07-25T22:55:41.355Z,75.03
2022-07-25T22:58:16.612Z,73.72
2022-07-25T23:00:52.426Z,81.03
2022-07-25T23:03:27.797Z,77.57
2022-07-25T23:06:07.204Z,69.32
2022-07-25T23:08:41.395Z,67.90
2022-07-25T23:11:15.540Z,67.75
2022-07-25T23:13:52.654Z,64.22
2022-07-25T23:16:28.725Z,66.47
2022-07-25T23:19:02.297Z,70.18
2022-07-25T23:21:35.981Z,76.82
2022-07-25T23:24:12.179Z,73.30
2022-07-25T23:26:47.061Z,73.80
2022-07-25T23:29:20.441Z,81.18
2022-07-25T23:31:56.651Z,70.40
2022-07-25T23:34:30.778Z,71.15
2022-07-25T23:37:04.655Z,67.85
2022-07-25T23:39:37.778Z,65.63
2022-07-25T23:42:11.541Z,68.05
2022-07-25T23:44:45.496Z,74.03
2022-07-25T23:47:26.775Z,79.50
2022-07-25T23:50:14.782Z,85.97
2022-07-25T23:52:48.870Z,99.30
2022-07-25T23:55:24.225Z,90.70
2022-07-25T23:57:58.066Z,72.43
